Inicio METAR Ruta Wind Satelite

Informe Meteorológico

Fecha: 2021/09/21 14:54:33 Local
2021.09.21 19:54 UTC


Operación:VFR
SKBG 211900Z 36004KT 9999 SCT015 24/20 Q1014 RMK A2995 =

SKBG 211800Z 08004KT 9999 FEW015 BKN070 23/18 Q1015 RMK A2999
SKBG 211700Z 17004KT 9999 FEW015 BKN070 22/19 Q1016 RMK A3002
SKBG 211600Z 14005KT 9999 SCT015 BKNT070 20/20 Q1017 RMK A3003
SKBG 211500Z 18008KT 8000 VCFG SCT012 BKN070 19/19 Q1018 RMK A3006
SKBG 211400Z 19006KT 8000 VCFG SCT010 BKNT070 19/19 Q1017 RMK A3005

2021/09/21 18:51
TAF TAF SKBG 211630Z 2118/2218 32011KT 9999 SCT015 SCT080
TEMPO 2119/212 DZ SCT010TCU BKN070 PROB40
TEMPO 2122/2201 4000 BCFG SCT008
BECMG 2201/2203 VRB02KT
TEMPO 2209/2212 5000 BCFG BKN010 TX24/2118Z TN19/2210Z